Time;durP1;ratioP1;P1;durP2;ratioP2;P2;SDS_P1;SDS_P2;PMS_P1;PMS_P2;Temp;Humidity;BMP_temperature;BMP_pressure;BME280_temperature;BME280_humidity;BME280_pressure;Samples;Min_cycle;Max_cycle;Signal;HPM_P1;HPM_P2
2023/11/04 00:00:33;;;;;;;4.88;3.80;;;;;;;4.96;100.00;94657.47;5001696;28;20136;-70
2023/11/04 00:02:58;;;;;;;4.18;3.38;;;;;;;4.93;100.00;94658.22;5014499;28;20077;-72
2023/11/04 00:05:23;;;;;;;6.15;3.22;;;;;;;4.97;100.00;94651.69;5018294;28;20578;-69
2023/11/04 00:07:49;;;;;;;4.57;2.95;;;;;;;4.95;100.00;94656.72;5019626;28;20053;-71
2023/11/04 00:10:14;;;;;;;5.43;2.10;;;;;;;4.97;100.00;94662.53;5010575;28;20517;-71
2023/11/04 00:12:40;;;;;;;2.75;1.92;;;;;;;4.89;100.00;94655.50;5009795;28;20050;-69
2023/11/04 00:15:06;;;;;;;2.08;1.70;;;;;;;4.86;100.00;94663.63;4981593;28;20510;-67
2023/11/04 00:17:31;;;;;;;3.10;1.90;;;;;;;5.03;100.00;94659.47;5003667;28;20056;-68
2023/11/04 00:19:57;;;;;;;2.65;1.75;;;;;;;5.14;100.00;94665.72;4994892;28;20497;-69
2023/11/04 00:22:22;;;;;;;2.03;1.50;;;;;;;5.19;100.00;94670.78;4987203;28;20808;-69
2023/11/04 00:24:52;;;;;;;5.00;1.90;;;;;;;5.22;100.00;94670.03;4983654;28;20124;-69
2023/11/04 00:27:19;;;;;;;4.40;2.15;;;;;;;5.32;100.00;94663.84;4997010;28;20152;-70
2023/11/04 00:29:44;;;;;;;6.90;2.10;;;;;;;5.43;100.00;94663.09;5001177;28;20066;-71
2023/11/04 00:32:10;;;;;;;3.67;2.58;;;;;;;5.49;100.00;94664.28;4997011;28;20080;-71
2023/11/04 00:34:35;;;;;;;3.10;2.33;;;;;;;5.49;100.00;94656.13;4992161;28;20136;-69
2023/11/04 00:37:01;;;;;;;3.30;2.28;;;;;;;5.50;100.00;94663.91;5000959;28;20057;-71
2023/11/04 00:39:27;;;;;;;5.28;2.42;;;;;;;5.54;100.00;94669.34;4996887;28;20050;-71
2023/11/04 00:41:52;;;;;;;5.53;2.63;;;;;;;5.49;100.00;94667.78;5001039;28;20042;-70
2023/11/04 00:44:17;;;;;;;7.20;2.72;;;;;;;5.46;100.00;94673.97;4997773;28;20420;-70
2023/11/04 00:46:43;;;;;;;2.72;2.13;;;;;;;5.42;100.00;94667.75;5012190;28;20109;-69
2023/11/04 00:49:08;;;;;;;4.82;2.35;;;;;;;5.40;100.00;94675.50;5006849;28;20049;-69
2023/11/04 00:51:36;;;;;;;3.78;2.30;;;;;;;5.44;100.00;94679.03;4982211;28;20136;-71
2023/11/04 00:54:01;;;;;;;5.13;2.80;;;;;;;5.54;100.00;94688.34;5006143;28;20038;-71
2023/11/04 00:56:27;;;;;;;3.72;2.40;;;;;;;5.55;100.00;94685.25;5002277;28;20070;-70
2023/11/04 00:58:52;;;;;;;19.08;10.90;;;;;;;5.46;100.00;94687.56;5005989;28;20404;-69
2023/11/04 01:01:18;;;;;;;3.75;2.67;;;;;;;5.52;100.00;94690.69;4997803;28;20060;-69
2023/11/04 01:03:43;;;;;;;3.75;2.33;;;;;;;5.52;100.00;94685.25;5001079;28;20405;-71
2023/11/04 01:06:09;;;;;;;5.03;2.70;;;;;;;5.57;100.00;94686.81;4996145;28;20049;-68
2023/11/04 01:08:34;;;;;;;2.92;2.15;;;;;;;5.54;100.00;94699.97;4992159;28;20070;-69
2023/11/04 01:11:00;;;;;;;4.43;2.40;;;;;;;5.46;100.00;94692.22;5000841;28;20430;-71
2023/11/04 01:13:25;;;;;;;3.67;2.20;;;;;;;5.45;100.00;94696.84;4996721;28;20050;-70
2023/11/04 01:15:51;;;;;;;8.38;2.65;;;;;;;5.61;100.00;94691.09;5000325;28;20415;-70
2023/11/04 01:18:19;;;;;;;3.05;2.38;;;;;;;5.65;100.00;94689.16;4995908;28;20045;-69
2023/11/04 01:20:47;;;;;;;6.32;2.58;;;;;;;5.76;100.00;94694.63;4985275;28;20050;-71
2023/11/04 01:23:12;;;;;;;3.75;2.22;;;;;;;5.69;100.00;94700.81;4971824;28;20049;-70
2023/11/04 01:25:38;;;;;;;3.63;2.50;;;;;;;5.60;100.00;94702.34;5009452;28;20049;-71
2023/11/04 01:28:04;;;;;;;5.38;2.60;;;;;;;5.55;100.00;94703.50;5006303;28;20045;-67
2023/11/04 01:30:30;;;;;;;7.25;2.58;;;;;;;5.47;100.00;94708.09;5002143;28;20050;-69
2023/11/04 01:32:55;;;;;;;3.83;2.60;;;;;;;5.43;100.00;94715.47;5000990;28;20041;-70
2023/11/04 01:35:21;;;;;;;4.07;3.00;;;;;;;5.38;100.00;94704.97;4996271;28;20049;-70
2023/11/04 01:37:46;;;;;;;3.78;2.70;;;;;;;5.36;100.00;94704.56;5003187;28;20141;-72
2023/11/04 01:40:12;;;;;;;5.53;2.40;;;;;;;5.37;100.00;94698.00;5001049;28;20058;-69
2023/11/04 01:42:44;;;;;;;3.55;2.40;;;;;;;5.48;100.00;94704.25;5004601;28;20488;-69
2023/11/04 01:45:11;;;;;;;3.40;2.10;;;;;;;5.61;100.00;94706.63;4986007;28;20045;-69
2023/11/04 01:47:38;;;;;;;4.18;2.33;;;;;;;5.87;100.00;94703.59;4993162;28;20053;-70
2023/11/04 01:50:04;;;;;;;3.97;2.05;;;;;;;5.92;100.00;94705.13;5017685;28;20099;-67
2023/11/04 01:52:30;;;;;;;3.63;2.10;;;;;;;6.05;100.00;94706.38;5004498;28;20064;-71
2023/11/04 01:54:57;;;;;;;3.10;2.00;;;;;;;5.93;100.00;94693.13;5001967;28;20384;-71
2023/11/04 01:57:23;;;;;;;3.42;1.80;;;;;;;5.97;100.00;94693.91;4999518;28;20506;-71
2023/11/04 01:59:49;;;;;;;4.88;2.10;;;;;;;6.07;100.00;94687.72;5006496;28;20056;-72
2023/11/04 02:02:17;;;;;;;2.90;1.90;;;;;;;6.04;100.00;94698.59;5007610;28;20120;-70
2023/11/04 02:04:43;;;;;;;3.20;2.00;;;;;;;6.03;100.00;94684.25;5001365;28;20137;-72
2023/11/04 02:07:09;;;;;;;2.55;1.75;;;;;;;5.95;100.00;94690.78;4995363;28;20133;-69
2023/11/04 02:09:34;;;;;;;3.33;1.88;;;;;;;5.96;100.00;94688.88;5001347;28;20076;-69
2023/11/04 02:12:00;;;;;;;6.38;2.03;;;;;;;5.86;100.00;94682.22;5004310;28;20176;-70
2023/11/04 02:14:25;;;;;;;3.33;1.63;;;;;;;5.84;100.00;94685.34;4991679;28;20061;-69
2023/11/04 02:16:52;;;;;;;3.22;1.45;;;;;;;5.80;100.00;94681.03;5003549;28;20524;-69
2023/11/04 02:19:17;;;;;;;1.50;1.40;;;;;;;5.82;100.00;94678.75;4998634;28;20046;-69
2023/11/04 02:21:43;;;;;;;3.13;1.52;;;;;;;5.71;100.00;94671.34;4971272;28;20050;-68
2023/11/04 02:24:09;;;;;;;4.60;1.77;;;;;;;5.65;100.00;94675.56;4981879;28;20412;-70
2023/11/04 02:26:35;;;;;;;3.60;1.73;;;;;;;5.58;100.00;94675.56;5004276;28;20046;-69
2023/11/04 02:29:00;;;;;;;4.75;1.70;;;;;;;5.55;100.00;94668.97;4996450;28;20162;-70
2023/11/04 02:31:26;;;;;;;2.38;1.83;;;;;;;5.48;100.00;94665.47;4984379;28;20117;-69
2023/11/04 02:33:51;;;;;;;2.20;1.55;;;;;;;5.39;100.00;94665.81;5003273;28;20058;-70
2023/11/04 02:36:17;;;;;;;5.57;2.10;;;;;;;5.30;100.00;94663.44;4998569;28;20249;-69
2023/11/04 02:38:42;;;;;;;3.33;1.63;;;;;;;5.26;100.00;94653.75;5000921;28;20046;-71
2023/11/04 02:41:07;;;;;;;2.88;1.88;;;;;;;5.45;100.00;94655.34;4992615;28;20050;-67
2023/11/04 02:43:33;;;;;;;2.25;1.70;;;;;;;5.65;100.00;94655.78;5003131;28;20042;-69
2023/11/04 02:45:58;;;;;;;2.40;1.48;;;;;;;5.63;100.00;94655.41;5003844;28;20125;-71
2023/11/04 02:48:24;;;;;;;4.70;1.90;;;;;;;5.54;100.00;94656.53;4999447;28;20451;-70
2023/11/04 02:50:50;;;;;;;2.95;1.40;;;;;;;5.58;100.00;94656.53;5021904;28;20415;-73
2023/11/04 02:53:16;;;;;;;2.83;1.60;;;;;;;5.44;100.00;94661.94;5008821;28;20462;-72
2023/11/04 02:55:42;;;;;;;2.45;1.40;;;;;;;5.46;100.00;94656.91;5011452;28;20111;-69
2023/11/04 02:58:07;;;;;;;3.58;1.60;;;;;;;5.42;100.00;94653.41;5009851;28;20042;-69
2023/11/04 03:00:33;;;;;;;3.53;1.73;;;;;;;5.47;100.00;94656.50;5007059;28;20057;-71
2023/11/04 03:02:59;;;;;;;4.78;1.48;;;;;;;5.46;100.00;94654.97;4993601;28;20050;-70
2023/11/04 03:05:24;;;;;;;3.35;2.08;;;;;;;5.46;100.00;94663.13;4995272;28;20072;-71
2023/11/04 03:07:50;;;;;;;2.60;1.60;;;;;;;5.45;100.00;94652.63;5002872;28;20119;-71
2023/11/04 03:10:15;;;;;;;5.07;1.52;;;;;;;5.47;100.00;94645.66;4999572;28;20042;-69
2023/11/04 03:12:41;;;;;;;1.73;1.50;;;;;;;5.48;100.00;94649.16;4986254;28;20054;-70
2023/11/04 03:15:07;;;;;;;2.90;1.50;;;;;;;5.51;100.00;94648.38;4998187;28;20133;-70
2023/11/04 03:17:32;;;;;;;2.10;1.40;;;;;;;5.49;100.00;94654.22;5002847;28;20523;-70
2023/11/04 03:19:58;;;;;;;1.67;1.23;;;;;;;5.50;100.00;94649.56;5003368;28;20038;-71
2023/11/04 03:22:23;;;;;;;1.65;1.17;;;;;;;5.55;100.00;94652.66;4998112;28;20600;-71
2023/11/04 03:24:49;;;;;;;3.63;1.20;;;;;;;5.45;100.00;94642.53;4985418;28;20477;-71
2023/11/04 03:27:14;;;;;;;1.60;1.20;;;;;;;5.48;100.00;94649.94;4989352;28;20041;-71
2023/11/04 03:29:40;;;;;;;1.40;1.00;;;;;;;5.44;100.00;94646.44;5005895;28;20041;-71
2023/11/04 03:32:06;;;;;;;1.80;1.30;;;;;;;5.51;100.00;94640.22;4994546;28;20080;-69
2023/11/04 03:34:32;;;;;;;3.72;1.48;;;;;;;5.48;100.00;94643.72;4996191;28;20112;-69
2023/11/04 03:36:57;;;;;;;4.20;1.40;;;;;;;5.47;100.00;94642.94;5003258;28;20034;-72
2023/11/04 03:39:23;;;;;;;3.83;1.52;;;;;;;5.59;100.00;94641.03;5010767;28;20049;-70
2023/11/04 03:41:49;;;;;;;2.42;1.48;;;;;;;5.62;100.00;94641.06;5018427;28;20081;-71
2023/11/04 03:44:15;;;;;;;2.00;1.25;;;;;;;5.60;100.00;94640.66;5005854;28;20048;-70
2023/11/04 03:46:41;;;;;;;1.17;1.00;;;;;;;5.73;100.00;94638.34;5008442;28;20056;-72
2023/11/04 03:49:06;;;;;;;1.98;1.27;;;;;;;5.86;100.00;94642.25;5004217;28;20068;-71
2023/11/04 03:51:32;;;;;;;1.77;1.10;;;;;;;5.78;100.00;94640.69;5005196;28;20115;-71
2023/11/04 03:53:58;;;;;;;1.77;1.10;;;;;;;5.67;100.00;94629.81;5008671;28;20037;-74
2023/11/04 03:56:23;;;;;;;1.23;1.13;;;;;;;5.69;100.00;94634.84;4997880;28;20763;-72
2023/11/04 03:58:49;;;;;;;1.88;1.35;;;;;;;5.62;100.00;94638.34;4983395;28;20042;-72
2023/11/04 04:01:14;;;;;;;2.15;1.13;;;;;;;5.50;100.00;94631.31;4995056;28;20064;-69
2023/11/04 04:03:40;;;;;;;1.33;0.90;;;;;;;5.56;100.00;94626.28;5002008;28;20050;-69
2023/11/04 04:06:05;;;;;;;2.88;1.20;;;;;;;5.46;100.00;94627.06;4980976;28;20125;-69
2023/11/04 04:08:31;;;;;;;4.25;1.23;;;;;;;5.39;100.00;94627.03;5003752;28;20046;-69
2023/11/04 04:10:56;;;;;;;1.50;1.10;;;;;;;5.38;100.00;94615.38;5001561;28;20046;-70
2023/11/04 04:13:22;;;;;;;1.85;1.15;;;;;;;5.41;100.00;94613.84;4991355;28;20968;-69
2023/11/04 04:15:48;;;;;;;2.08;1.20;;;;;;;5.35;100.00;94621.59;4998272;28;20045;-71
2023/11/04 04:18:13;;;;;;;3.47;1.10;;;;;;;5.43;100.00;94619.66;4997073;28;20092;-71
2023/11/04 04:20:39;;;;;;;1.83;1.00;;;;;;;5.46;100.00;94616.19;5001888;28;20060;-70
2023/11/04 04:23:04;;;;;;;1.10;1.00;;;;;;;5.39;100.00;94614.22;4998280;28;20088;-67
2023/11/04 04:25:29;;;;;;;2.08;1.15;;;;;;;5.34;100.00;94609.94;4983593;28;20116;-71
2023/11/04 04:27:55;;;;;;;2.35;1.00;;;;;;;5.38;100.00;94599.09;5001906;28;20068;-71
2023/11/04 04:30:20;;;;;;;2.95;1.05;;;;;;;5.31;100.00;94604.50;4980001;28;20042;-70
2023/11/04 04:32:46;;;;;;;1.50;1.10;;;;;;;5.14;100.00;94603.28;4994180;28;20113;-70
2023/11/04 04:35:12;;;;;;;1.15;1.00;;;;;;;5.05;100.00;94592.78;4979358;28;20034;-70
2023/11/04 04:37:38;;;;;;;1.15;0.88;;;;;;;5.03;100.00;94583.50;5002520;28;20046;-71
2023/11/04 04:40:05;;;;;;;1.40;0.95;;;;;;;4.98;100.00;94574.53;4998000;28;20040;-69
2023/11/04 04:42:31;;;;;;;1.25;0.90;;;;;;;5.00;100.00;94576.88;4983585;28;20042;-69
2023/11/04 04:44:56;;;;;;;1.42;0.88;;;;;;;5.04;100.00;94574.97;4993021;28;20038;-70
2023/11/04 04:47:22;;;;;;;1.55;1.10;;;;;;;5.00;100.00;94574.16;4986595;28;20514;-70
2023/11/04 04:49:47;;;;;;;3.90;1.00;;;;;;;4.92;100.00;94575.31;4968299;28;20045;-71
2023/11/04 04:52:13;;;;;;;1.38;1.00;;;;;;;4.79;100.00;94574.88;5005981;28;20068;-69
2023/11/04 04:54:39;;;;;;;1.42;1.08;;;;;;;4.65;100.00;94559.31;5013722;28;20042;-69
2023/11/04 04:57:04;;;;;;;1.20;1.10;;;;;;;4.64;100.00;94565.88;4996326;28;20120;-69
2023/11/04 04:59:30;;;;;;;1.65;0.85;;;;;;;4.76;100.00;94559.34;5001653;28;20489;-72
2023/11/04 05:01:56;;;;;;;1.45;1.08;;;;;;;4.77;100.00;94558.19;4984692;28;20518;-70
2023/11/04 05:04:22;;;;;;;2.97;0.93;;;;;;;4.64;100.00;94559.69;4998511;28;20495;-70
2023/11/04 05:06:47;;;;;;;1.73;1.00;;;;;;;4.48;100.00;94560.00;4997955;28;20108;-71
2023/11/04 05:09:13;;;;;;;1.38;1.10;;;;;;;4.28;100.00;94545.94;4995994;28;20089;-71
2023/11/04 05:11:38;;;;;;;1.58;0.80;;;;;;;4.24;100.00;94545.16;5003315;28;20054;-69
2023/11/04 05:14:04;;;;;;;1.55;0.98;;;;;;;4.35;100.00;94546.00;4990025;28;20049;-68
2023/11/04 05:16:30;;;;;;;2.03;1.02;;;;;;;4.44;100.00;94537.53;5000295;28;20041;-71
2023/11/04 05:18:55;;;;;;;1.20;0.98;;;;;;;4.60;100.00;94537.97;4979166;28;20070;-72
2023/11/04 05:21:27;;;;;;;1.17;0.90;;;;;;;4.54;100.00;94531.38;5001907;28;20053;-72
2023/11/04 05:23:53;;;;;;;1.80;1.08;;;;;;;4.46;100.00;94530.56;5005581;28;20057;-69
2023/11/04 05:26:19;;;;;;;1.65;1.00;;;;;;;4.38;100.00;94529.75;5002884;28;20076;-71
2023/11/04 05:28:45;;;;;;;0.75;0.75;;;;;;;4.38;100.00;94528.97;5007427;28;20081;-71
2023/11/04 05:31:10;;;;;;;1.48;0.82;;;;;;;4.33;100.00;94529.34;5000386;28;20485;-70
2023/11/04 05:33:36;;;;;;;2.33;0.95;;;;;;;4.18;100.00;94525.78;5011760;28;20054;-71
2023/11/04 05:36:02;;;;;;;1.15;1.05;;;;;;;4.08;100.00;94529.19;5021422;28;20113;-68
2023/11/04 05:38:28;;;;;;;1.45;1.00;;;;;;;4.04;100.00;94528.41;5012676;28;20049;-70
2023/11/04 05:40:54;;;;;;;2.10;1.05;;;;;;;3.92;100.00;94521.34;5002836;28;20080;-72
2023/11/04 05:43:20;;;;;;;1.17;1.00;;;;;;;3.89;100.00;94509.34;5009021;28;20042;-70
2023/11/04 05:45:46;;;;;;;3.67;0.98;;;;;;;3.79;100.00;94510.03;5005713;28;20104;-70
2023/11/04 05:48:11;;;;;;;3.00;1.10;;;;;;;3.74;100.00;94497.63;5000207;28;20053;-71
2023/11/04 05:50:37;;;;;;;1.83;1.05;;;;;;;3.80;100.00;94490.72;5004993;28;20050;-71
2023/11/04 05:53:03;;;;;;;3.30;1.13;;;;;;;3.75;100.00;94493.00;4989288;28;20046;-69
2023/11/04 05:55:29;;;;;;;3.38;1.23;;;;;;;3.71;100.00;94489.47;5021319;28;20065;-71
2023/11/04 05:57:55;;;;;;;2.40;1.02;;;;;;;3.63;100.00;94480.53;4992209;28;20120;-69
2023/11/04 06:00:20;;;;;;;1.55;1.10;;;;;;;3.59;100.00;94480.50;4999014;28;20060;-72
2023/11/04 06:02:46;;;;;;;2.67;1.30;;;;;;;3.52;100.00;94471.56;5002931;28;20520;-69
2023/11/04 06:05:15;;;;;;;2.30;1.30;;;;;;;3.41;100.00;94461.41;4998929;28;20547;-71
2023/11/04 06:07:40;;;;;;;5.88;1.52;;;;;;;3.35;100.00;94460.22;4986742;28;20048;-72
2023/11/04 06:10:08;;;;;;;1.55;1.10;;;;;;;3.36;100.00;94453.66;5000079;28;20037;-69
2023/11/04 06:12:37;;;;;;;5.03;1.70;;;;;;;3.33;100.00;94449.00;5003353;28;20046;-70
2023/11/04 06:15:03;;;;;;;2.10;1.30;;;;;;;3.42;100.00;94454.88;5001533;28;20096;-68
2023/11/04 06:17:29;;;;;;;1.83;1.10;;;;;;;3.48;100.00;94449.09;4995064;28;20097;-68
2023/11/04 06:19:55;;;;;;;1.63;1.30;;;;;;;3.43;100.00;94444.81;5001841;28;20053;-70
2023/11/04 06:22:20;;;;;;;2.47;1.42;;;;;;;3.41;100.00;94441.72;4998862;28;20050;-72
2023/11/04 06:24:46;;;;;;;5.28;1.65;;;;;;;3.38;100.00;94432.41;4985928;28;20042;-72
2023/11/04 06:27:11;;;;;;;2.00;1.40;;;;;;;3.61;100.00;94436.81;5005950;28;20057;-71
2023/11/04 06:29:36;;;;;;;3.38;2.17;;;;;;;3.47;100.00;94431.31;4977867;28;20046;-69
2023/11/04 06:32:03;;;;;;;1.70;1.20;;;;;;;3.39;100.00;94431.25;4997405;28;20128;-68
2023/11/04 06:34:28;;;;;;;3.63;1.60;;;;;;;3.33;100.00;94430.06;5001844;28;20492;-70
2023/11/04 06:36:54;;;;;;;1.40;1.17;;;;;;;3.30;100.00;94425.38;5002934;28;20050;-70
2023/11/04 06:39:20;;;;;;;3.75;1.42;;;;;;;3.30;100.00;94428.09;4990213;28;20137;-69
2023/11/04 06:41:47;;;;;;;2.42;1.38;;;;;;;3.25;100.00;94423.03;5002126;28;20053;-69
2023/11/04 06:44:13;;;;;;;3.08;2.58;;;;;;;3.23;100.00;94434.22;4998900;28;20476;-69
2023/11/04 06:46:41;;;;;;;2.30;1.30;;;;;;;3.22;100.00;94431.88;5002910;28;20611;-69
2023/11/04 06:49:07;;;;;;;3.00;2.25;;;;;;;3.24;100.00;94432.28;4974240;28;20042;-70
2023/11/04 06:51:32;;;;;;;4.15;1.67;;;;;;;3.28;100.00;94430.41;5004303;28;20053;-70
2023/11/04 06:53:57;;;;;;;2.45;1.38;;;;;;;3.28;100.00;94432.31;5001103;28;20263;-71
2023/11/04 06:56:26;;;;;;;3.65;2.65;;;;;;;3.31;100.00;94429.63;5014590;28;20214;-69
2023/11/04 06:58:52;;;;;;;7.20;5.50;;;;;;;3.56;100.00;94429.03;4984772;28;20077;-71
2023/11/04 07:01:19;;;;;;;23.00;12.65;;;;;;;3.80;100.00;94419.53;4995335;28;20046;-71
2023/11/04 07:03:47;;;;;;;23.88;11.55;;;;;;;3.98;100.00;94414.97;4993016;28;20420;-71
2023/11/04 07:06:16;;;;;;;44.75;19.77;;;;;;;4.23;100.00;94406.16;4999353;28;20065;-70
2023/11/04 07:08:42;;;;;;;20.15;9.60;;;;;;;4.36;100.00;94401.97;5004653;28;20072;-70
2023/11/04 07:11:12;;;;;;;11.95;6.05;;;;;;;4.43;100.00;94401.22;4994866;28;20037;-70
2023/11/04 07:13:41;;;;;;;6.57;3.70;;;;;;;4.63;100.00;94403.56;5003053;28;20145;-70
2023/11/04 07:16:08;;;;;;;7.10;5.90;;;;;;;4.66;100.00;94390.03;4959960;28;20042;-70
2023/11/04 07:18:34;;;;;;;3.70;3.10;;;;;;;4.73;100.00;94386.56;4998255;28;20447;-70
2023/11/04 07:20:59;;;;;;;2.42;1.40;;;;;;;5.08;100.00;94393.19;5001132;28;20042;-70
2023/11/04 07:23:26;;;;;;;2.70;1.70;;;;;;;5.30;100.00;94386.59;4999013;28;20111;-70
2023/11/04 07:25:52;;;;;;;3.78;1.40;;;;;;;5.44;100.00;94385.81;4985453;28;20428;-70
2023/11/04 07:28:18;;;;;;;2.95;1.85;;;;;;;5.52;100.00;94386.56;4978118;28;20044;-69
2023/11/04 07:30:43;;;;;;;2.53;1.40;;;;;;;5.19;100.00;94377.69;5001350;28;20061;-69
2023/11/04 07:33:09;;;;;;;1.52;1.08;;;;;;;4.93;100.00;94371.50;4998619;28;20404;-69
2023/11/04 07:35:34;;;;;;;2.17;1.50;;;;;;;4.78;100.00;94364.50;5000894;28;20050;-69
2023/11/04 07:38:00;;;;;;;1.67;1.25;;;;;;;5.13;100.00;94355.59;4983528;28;20049;-69
2023/11/04 07:40:25;;;;;;;3.05;1.10;;;;;;;5.73;100.00;94351.22;4999366;28;20396;-69
2023/11/04 07:42:51;;;;;;;2.05;1.02;;;;;;;5.91;100.00;94353.88;5005783;28;20046;-70
2023/11/04 07:45:16;;;;;;;1.67;1.10;;;;;;;6.11;100.00;94348.78;5010620;28;20524;-70
2023/11/04 07:47:43;;;;;;;2.47;0.90;;;;;;;5.96;100.00;94349.22;5008219;28;20056;-70
2023/11/04 07:50:12;;;;;;;2.15;0.90;;;;;;;5.26;100.00;94349.78;4999946;28;20119;-69
2023/11/04 07:52:41;;;;;;;2.70;1.15;;;;;;;4.93;100.00;94355.22;5003068;28;20081;-70
2023/11/04 07:55:09;;;;;;;3.30;1.05;;;;;;;4.91;100.00;94354.81;4979644;28;20042;-70
2023/11/04 07:57:38;;;;;;;1.88;1.00;;;;;;;5.04;100.00;94343.56;5017275;28;20053;-69
2023/11/04 08:00:10;;;;;;;2.67;1.20;;;;;;;4.93;100.00;94347.06;4996008;28;20061;-68
2023/11/04 08:02:37;;;;;;;1.70;1.10;;;;;;;5.17;100.00;94342.78;4984980;28;20088;-71
2023/11/04 08:05:04;;;;;;;3.10;1.20;;;;;;;5.18;100.00;94343.56;4996733;28;20046;-67
2023/11/04 08:07:31;;;;;;;3.45;1.23;;;;;;;5.26;100.00;94328.06;4997202;28;20050;-72
2023/11/04 08:09:57;;;;;;;2.03;1.20;;;;;;;5.15;100.00;94322.66;5000634;28;20073;-70
2023/11/04 08:12:22;;;;;;;5.65;1.00;;;;;;;5.19;100.00;94317.97;4998665;28;20387;-70
2023/11/04 08:14:48;;;;;;;4.85;0.95;;;;;;;5.15;100.00;94320.69;5002733;28;20123;-70
2023/11/04 08:17:14;;;;;;;1.52;0.80;;;;;;;5.18;100.00;94302.84;4970024;28;20042;-70
2023/11/04 08:19:40;;;;;;;3.97;1.17;;;;;;;5.20;100.00;94297.03;5000430;28;20053;-70
2023/11/04 08:22:07;;;;;;;1.45;0.80;;;;;;;5.23;100.00;94285.41;4997487;28;20069;-70
2023/11/04 08:24:32;;;;;;;2.95;1.00;;;;;;;5.46;100.00;94290.41;5023205;28;20089;-69
2023/11/04 08:26:58;;;;;;;3.05;1.00;;;;;;;5.72;100.00;94281.00;5022053;28;20046;-69
2023/11/04 08:29:23;;;;;;;2.03;0.80;;;;;;;5.93;100.00;94267.31;5014724;28;20528;-70
2023/11/04 08:31:49;;;;;;;1.55;1.00;;;;;;;5.73;100.00;94267.03;5015799;28;20056;-71
2023/11/04 08:34:14;;;;;;;2.47;0.88;;;;;;;5.85;100.00;94260.38;5001974;28;20041;-71
2023/11/04 08:36:40;;;;;;;0.80;0.70;;;;;;;5.97;100.00;94267.31;5006712;28;20095;-70
2023/11/04 08:39:07;;;;;;;1.23;0.80;;;;;;;6.28;100.00;94271.03;4986718;28;20400;-70
2023/11/04 08:41:32;;;;;;;1.20;0.90;;;;;;;6.23;100.00;94279.63;5002217;28;20119;-71
2023/11/04 08:43:58;;;;;;;1.55;0.93;;;;;;;6.55;100.00;94278.63;4984124;28;20042;-71
2023/11/04 08:46:23;;;;;;;3.42;1.67;;;;;;;7.17;99.35;94276.19;4996398;28;20070;-71
2023/11/04 08:48:50;;;;;;;1.58;0.80;;;;;;;7.44;90.91;94270.84;5006889;28;20042;-73
2023/11/04 08:51:15;;;;;;;2.53;1.23;;;;;;;7.60;87.81;94264.84;4996906;28;20110;-70
2023/11/04 08:53:40;;;;;;;2.83;1.67;;;;;;;7.23;92.62;94256.28;5001795;28;20058;-70
2023/11/04 08:56:06;;;;;;;0.98;0.70;;;;;;;6.81;88.77;94244.63;4988135;28;20060;-69
2023/11/04 08:58:34;;;;;;;1.02;0.82;;;;;;;7.00;91.86;94231.63;5026157;28;20046;-69
2023/11/04 09:01:00;;;;;;;3.00;2.53;;;;;;;6.73;94.88;94217.88;4999440;28;20129;-70
2023/11/04 09:03:27;;;;;;;2.22;1.00;;;;;;;6.58;94.43;94215.28;5001741;28;20518;-71
2023/11/04 09:05:53;;;;;;;1.83;0.90;;;;;;;6.74;93.32;94214.75;5004929;28;20041;-70
2023/11/04 09:08:18;;;;;;;2.40;1.20;;;;;;;6.89;91.25;94218.88;5000847;28;20046;-70
2023/11/04 09:10:44;;;;;;;2.50;0.90;;;;;;;6.62;95.95;94207.84;5007898;28;20154;-70
2023/11/04 09:13:10;;;;;;;2.53;0.90;;;;;;;7.06;93.89;94208.25;5004316;28;20046;-70
2023/11/04 09:15:35;;;;;;;1.13;0.80;;;;;;;7.50;88.79;94200.38;5007955;28;20103;-72
2023/11/04 09:18:03;;;;;;;1.90;1.20;;;;;;;7.66;89.83;94193.16;4996927;28;20054;-69
2023/11/04 09:20:29;;;;;;;0.75;0.60;;;;;;;7.63;88.12;94185.81;4986211;28;20460;-69
2023/11/04 09:22:56;;;;;;;1.77;0.90;;;;;;;7.30;87.66;94190.09;5005758;28;20089;-69
2023/11/04 09:25:21;;;;;;;5.72;3.30;;;;;;;7.50;91.21;94198.41;4983752;28;20125;-71
2023/11/04 09:27:47;;;;;;;5.45;1.58;;;;;;;7.90;86.92;94181.56;5006034;28;20109;-69
2023/11/04 09:30:13;;;;;;;2.58;1.00;;;;;;;7.83;82.36;94169.59;4989687;28;20038;-72
2023/11/04 09:32:39;;;;;;;1.95;0.90;;;;;;;8.16;82.88;94174.56;5001881;28;20053;-70
2023/11/04 09:35:05;;;;;;;3.70;0.80;;;;;;;7.52;85.74;94176.22;5001242;28;20045;-71
2023/11/04 09:37:32;;;;;;;1.58;0.80;;;;;;;7.91;85.11;94172.22;5004966;28;20041;-71
2023/11/04 09:39:58;;;;;;;2.83;1.10;;;;;;;7.97;84.43;94171.31;5006225;28;20053;-68
2023/11/04 09:42:29;;;;;;;1.77;1.00;;;;;;;7.65;84.37;94166.31;5000074;28;20869;-70
2023/11/04 09:44:55;;;;;;;2.35;1.10;;;;;;;7.68;85.00;94157.31;5003014;28;20528;-70
2023/11/04 09:47:21;;;;;;;2.30;0.82;;;;;;;7.41;86.36;94152.59;4984532;28;20046;-69
2023/11/04 09:49:48;;;;;;;1.67;1.00;;;;;;;7.29;85.88;94150.41;5005054;28;20048;-69
2023/11/04 09:52:15;;;;;;;1.83;0.93;;;;;;;7.30;85.64;94146.53;5001402;28;20034;-70
2023/11/04 09:54:46;;;;;;;1.75;0.95;;;;;;;7.49;87.35;94144.34;5006817;28;20088;-70
2023/11/04 09:57:14;;;;;;;2.28;0.90;;;;;;;7.78;84.87;94145.50;4986245;28;20038;-71
2023/11/04 09:59:40;;;;;;;2.90;1.60;;;;;;;7.41;85.33;94141.72;5026145;28;20057;-70
2023/11/04 10:02:08;;;;;;;2.55;1.55;;;;;;;7.71;85.26;94139.41;5000933;28;20570;-69
2023/11/04 10:04:35;;;;;;;1.70;0.80;;;;;;;8.10;84.55;94127.91;4986473;28;20042;-71
2023/11/04 10:07:01;;;;;;;0.98;0.75;;;;;;;8.06;85.07;94113.56;4984789;28;20544;-70
2023/11/04 10:09:27;;;;;;;4.40;1.10;;;;;;;8.04;85.49;94103.06;4991994;28;20056;-71
2023/11/04 10:11:53;;;;;;;1.15;0.73;;;;;;;7.83;84.38;94092.50;5003425;28;20129;-69
2023/11/04 10:14:21;;;;;;;1.00;0.73;;;;;;;7.61;85.16;94103.69;4977790;28;20030;-69
2023/11/04 10:16:47;;;;;;;1.75;1.35;;;;;;;7.62;85.83;94090.88;5005484;28;20552;-69
2023/11/04 10:19:14;;;;;;;8.02;6.22;;;;;;;7.75;85.69;94086.38;5002996;28;20042;-72
2023/11/04 10:21:42;;;;;;;5.57;3.95;;;;;;;7.87;85.30;94081.53;5004835;28;20058;-71
2023/11/04 10:24:08;;;;;;;5.60;3.28;;;;;;;7.98;83.88;94076.72;4999272;28;20096;-69
2023/11/04 10:26:34;;;;;;;4.72;2.00;;;;;;;7.83;85.59;94065.25;5004895;28;20049;-69
2023/11/04 10:28:59;;;;;;;3.88;2.40;;;;;;;7.78;86.71;94063.78;5003443;28;20042;-71
2023/11/04 10:31:25;;;;;;;3.00;1.63;;;;;;;7.83;89.24;94049.69;4998563;28;20460;-70
2023/11/04 10:33:55;;;;;;;3.25;1.35;;;;;;;7.84;88.19;94048.47;5009372;28;20484;-71
2023/11/04 10:36:21;;;;;;;10.00;2.15;;;;;;;7.85;85.46;94049.28;5000995;28;20057;-70
2023/11/04 10:38:55;;;;;;;2.15;1.40;;;;;;;7.75;85.67;94042.78;5003654;28;20144;-70
2023/11/04 10:41:26;;;;;;;2.05;1.00;;;;;;;7.68;87.87;94039.41;4999989;28;20344;-72
2023/11/04 10:44:01;;;;;;;1.73;1.00;;;;;;;7.83;88.08;94038.78;4986340;28;20069;-74
2023/11/04 10:46:49;;;;;;;3.20;1.17;;;;;;;8.01;85.23;94034.97;4998477;28;20119;-73
2023/11/04 10:49:15;;;;;;;2.97;2.28;;;;;;;8.07;87.09;94030.59;4998534;28;20045;-71
2023/11/04 10:51:46;;;;;;;2.95;0.85;;;;;;;8.22;82.60;94037.34;4987425;28;20038;-71
2023/11/04 10:54:35;;;;;;;5.97;3.58;;;;;;;8.32;82.64;94040.28;4999303;28;20072;-72
2023/11/04 10:57:25;;;;;;;2.00;0.82;;;;;;;8.44;79.12;94041.69;4989244;28;20396;-72
2023/11/04 11:00:08;;;;;;;1.13;0.88;;;;;;;8.53;78.26;94041.91;5020030;28;20077;-69
2023/11/04 11:02:38;;;;;;;1.70;0.70;;;;;;;8.79;78.02;94038.28;5006185;28;20053;-72
2023/11/04 11:05:04;;;;;;;1.48;0.93;;;;;;;8.95;76.40;94040.31;5000031;28;20543;-67
2023/11/04 11:07:29;;;;;;;0.80;0.80;;;;;;;9.24;77.95;94041.66;5002713;28;20139;-71
2023/11/04 11:09:57;;;;;;;1.45;0.82;;;;;;;9.36;81.16;94030.09;5009199;28;20297;-72
2023/11/04 11:12:24;;;;;;;3.08;1.05;;;;;;;9.46;83.01;94040.03;5019308;28;20050;-70
2023/11/04 11:14:50;;;;;;;1.33;0.82;;;;;;;9.37;84.73;94037.09;5020869;28;20053;-71
2023/11/04 11:17:16;;;;;;;2.05;0.98;;;;;;;9.26;85.72;94042.03;5013909;28;20042;-70
2023/11/04 11:19:46;;;;;;;3.10;0.80;;;;;;;9.03;86.91;94034.72;5003886;28;20181;-72
2023/11/04 11:22:25;;;;;;;2.20;1.08;;;;;;;9.10;87.57;94026.38;4998196;28;20130;-71
2023/11/04 11:24:57;;;;;;;2.72;0.90;;;;;;;9.14;86.95;94022.34;5007779;28;20076;-72
2023/11/04 11:27:24;;;;;;;1.08;0.80;;;;;;;9.16;85.86;93992.69;5001202;28;20318;-72
2023/11/04 11:29:50;;;;;;;2.47;0.90;;;;;;;8.97;85.51;93991.53;5008391;28;20128;-72